createdAt,value
2018-07-23T00:01:22.146Z,21.14
2018-07-23T00:03:52.593Z,21.12
2018-07-23T00:06:23.491Z,21.12
2018-07-23T00:08:53.181Z,21.07
2018-07-23T00:11:23.296Z,21.03
2018-07-23T00:13:52.838Z,20.99
2018-07-23T00:33:44.706Z,20.96
2018-07-23T00:36:15.165Z,20.86
2018-07-23T00:38:44.741Z,20.82
2018-07-23T00:58:37.409Z,20.48
2018-07-23T01:01:06.938Z,20.41
2018-07-23T01:03:36.695Z,20.42
2018-07-23T01:06:06.490Z,20.38
2018-07-23T01:08:36.569Z,20.42
2018-07-23T01:11:06.578Z,20.41
2018-07-23T01:13:36.397Z,20.49
2018-07-23T01:16:06.829Z,20.42
2018-07-23T01:18:36.539Z,20.40
2018-07-23T01:21:06.412Z,20.51
2018-07-23T01:23:35.919Z,20.46
2018-07-23T01:26:05.533Z,20.38
2018-07-23T01:28:36.101Z,20.46
2018-07-23T01:31:05.443Z,20.41
2018-07-23T01:33:35.164Z,20.34
2018-07-23T01:36:04.639Z,20.30
2018-07-23T01:38:34.309Z,20.31
2018-07-23T01:41:04.085Z,20.27
2018-07-23T01:43:33.680Z,20.28
2018-07-23T01:46:04.293Z,20.29
2018-07-23T02:05:56.376Z,20.00
2018-07-23T02:08:26.003Z,19.91
2018-07-23T02:10:55.594Z,19.88
2018-07-23T02:13:25.602Z,19.88
2018-07-23T02:15:55.340Z,19.85
2018-07-23T02:18:25.035Z,19.80
2018-07-23T02:20:57.072Z,19.63
2018-07-23T02:23:26.861Z,19.49
2018-07-23T02:25:56.557Z,19.52
2018-07-23T02:28:27.540Z,19.55
2018-07-23T02:30:57.231Z,19.53
2018-07-23T02:33:26.722Z,19.55
2018-07-23T02:35:56.456Z,19.54
2018-07-23T02:38:26.364Z,19.58
2018-07-23T02:40:56.321Z,19.47
2018-07-23T02:43:26.487Z,19.40
2018-07-23T02:45:56.091Z,19.42
2018-07-23T02:48:25.589Z,19.40
2018-07-23T02:50:55.557Z,19.35
2018-07-23T02:53:26.124Z,19.36
2018-07-23T02:55:56.168Z,19.34
2018-07-23T02:58:25.703Z,19.35
2018-07-23T03:00:56.158Z,19.33
2018-07-23T03:03:26.015Z,19.35
2018-07-23T03:05:55.725Z,19.36
2018-07-23T03:08:25.312Z,19.18
2018-07-23T03:10:54.840Z,19.18
2018-07-23T03:13:24.377Z,19.29
2018-07-23T03:15:54.834Z,19.26
2018-07-23T03:18:25.410Z,19.21
2018-07-23T03:20:55.982Z,19.12
2018-07-23T03:23:28.237Z,19.07
2018-07-23T03:43:19.570Z,18.96
2018-07-23T03:45:48.952Z,18.95
2018-07-23T04:05:40.947Z,19.13
2018-07-23T04:08:10.576Z,19.14
2018-07-23T04:10:39.916Z,19.23
2018-07-23T04:13:09.412Z,19.21
2018-07-23T04:15:38.760Z,19.17
2018-07-23T04:18:08.078Z,19.18
2018-07-23T04:20:37.714Z,19.15
2018-07-23T04:23:08.052Z,19.10
2018-07-23T04:25:37.405Z,19.18
2018-07-23T04:28:06.781Z,19.29
2018-07-23T04:30:36.235Z,19.29
2018-07-23T04:33:05.757Z,19.35
2018-07-23T04:35:35.056Z,19.35
2018-07-23T04:38:04.750Z,19.40
2018-07-23T04:40:34.079Z,19.49
2018-07-23T04:43:03.557Z,19.51
2018-07-23T04:45:33.391Z,19.50
2018-07-23T04:48:02.910Z,19.60
2018-07-23T04:50:32.219Z,19.62
2018-07-23T04:53:02.649Z,19.68
2018-07-23T04:55:32.057Z,19.74
2018-07-23T05:32:46.524Z,20.19
2018-07-23T05:35:16.275Z,20.23
2018-07-23T05:37:45.965Z,20.15
2018-07-23T05:40:15.645Z,20.23
2018-07-23T06:00:07.649Z,20.61
2018-07-23T06:02:37.442Z,20.66
2018-07-23T06:05:06.894Z,20.81
2018-07-23T06:07:36.560Z,20.77
2018-07-23T06:10:06.354Z,20.87
2018-07-23T06:29:58.685Z,21.25
2018-07-23T06:32:29.068Z,21.36
2018-07-23T06:34:58.684Z,21.41
2018-07-23T06:37:28.302Z,21.48
2018-07-23T06:39:57.969Z,21.55
2018-07-23T06:42:27.489Z,21.54
2018-07-23T06:44:57.037Z,21.85
2018-07-23T06:47:26.983Z,21.86
2018-07-23T06:49:56.926Z,21.77
2018-07-23T06:52:26.753Z,21.73
2018-07-23T06:54:56.644Z,21.79
2018-07-23T06:57:25.996Z,21.87
2018-07-23T06:59:55.655Z,21.80
2018-07-23T07:19:48.600Z,22.35
2018-07-23T07:39:40.724Z,22.70
2018-07-23T07:42:10.743Z,22.63
2018-07-23T07:44:40.408Z,22.70
2018-07-23T07:47:09.997Z,22.88
2018-07-23T07:49:40.065Z,22.91
2018-07-23T08:09:31.762Z,23.16
2018-07-23T08:12:01.718Z,23.35
2018-07-23T08:31:53.682Z,23.69
2018-07-23T08:51:45.132Z,24.06
2018-07-23T08:54:14.707Z,24.16
2018-07-23T08:56:44.365Z,24.28
2018-07-23T09:33:59.581Z,25.18
2018-07-23T09:36:29.057Z,25.03
2018-07-23T09:38:58.780Z,25.03
2018-07-23T09:58:51.624Z,25.59
2018-07-23T10:01:21.274Z,25.21
2018-07-23T10:03:51.048Z,24.82
2018-07-23T10:23:43.077Z,24.04
2018-07-23T10:26:12.849Z,24.03
2018-07-23T10:28:42.700Z,23.95
2018-07-23T10:31:12.386Z,23.91
2018-07-23T10:33:41.747Z,23.85
2018-07-23T10:36:11.388Z,23.69
2018-07-23T10:38:41.108Z,23.46
2018-07-23T10:41:10.917Z,23.20
2018-07-23T10:43:40.672Z,23.04
2018-07-23T11:03:33.261Z,21.26
2018-07-23T11:06:02.863Z,21.21
2018-07-23T11:08:32.669Z,21.10
2018-07-23T11:11:02.349Z,21.20
2018-07-23T11:13:31.901Z,21.19
2018-07-23T11:16:01.522Z,21.08
2018-07-23T11:18:31.327Z,21.13
2018-07-23T11:21:00.839Z,21.08
2018-07-23T11:23:30.362Z,21.01
2018-07-23T11:26:00.390Z,20.87
2018-07-23T11:28:30.285Z,20.83
2018-07-23T11:31:00.025Z,20.94
2018-07-23T11:33:29.740Z,20.95
2018-07-23T11:35:59.315Z,21.06
2018-07-23T11:38:28.872Z,21.10
2018-07-23T11:40:59.054Z,21.13
2018-07-23T11:43:29.443Z,21.21
2018-07-23T12:03:21.326Z,22.06
2018-07-23T12:05:50.754Z,22.12
2018-07-23T12:25:47.508Z,22.04
2018-07-23T12:45:41.249Z,23.36
2018-07-23T13:05:39.460Z,24.58
2018-07-23T13:08:10.564Z,24.69
2018-07-23T13:10:42.871Z,24.74
2018-07-23T13:13:13.797Z,25.13
2018-07-23T13:15:43.673Z,25.13
2018-07-23T13:18:16.922Z,25.13
2018-07-23T13:20:49.045Z,24.87
2018-07-23T13:23:21.024Z,24.59
2018-07-23T13:25:55.217Z,24.57
2018-07-23T13:31:08.709Z,24.18
2018-07-23T13:33:42.667Z,23.94
2018-07-23T13:53:52.534Z,23.25
2018-07-23T13:56:26.377Z,23.27
2018-07-23T13:59:03.460Z,23.32
2018-07-23T14:01:34.132Z,22.88
2018-07-23T14:04:05.739Z,22.58
2018-07-23T14:06:35.501Z,22.53
2018-07-23T14:09:18.879Z,22.42
2018-07-23T14:11:53.654Z,22.21
2018-07-23T14:14:47.097Z,22.05
2018-07-23T14:34:44.645Z,20.98
2018-07-23T14:37:17.010Z,21.00
2018-07-23T14:39:49.951Z,20.91
2018-07-23T14:42:25.465Z,20.81
2018-07-23T15:02:17.445Z,22.18
2018-07-23T15:04:48.036Z,21.80
2018-07-23T15:07:22.329Z,21.50
2018-07-23T15:09:54.568Z,21.18
2018-07-23T15:12:24.337Z,21.09
2018-07-23T15:32:18.223Z,21.15
2018-07-23T15:34:47.808Z,21.12
2018-07-23T15:37:21.135Z,21.14
2018-07-23T15:39:50.727Z,21.09
2018-07-23T15:42:23.669Z,21.09
2018-07-23T15:44:53.988Z,21.06
2018-07-23T15:47:24.991Z,21.15
2018-07-23T15:49:54.394Z,21.18
2018-07-23T15:52:24.032Z,21.18
2018-07-23T15:54:53.793Z,21.12
2018-07-23T15:57:30.270Z,21.17
2018-07-23T16:00:01.202Z,21.17
2018-07-23T16:02:32.171Z,21.08
2018-07-23T16:05:01.568Z,21.05
2018-07-23T16:07:31.050Z,21.01
2018-07-23T16:10:01.099Z,20.90
2018-07-23T16:12:30.541Z,20.61
2018-07-23T16:15:00.190Z,20.16
2018-07-23T16:17:30.541Z,20.15
2018-07-23T16:20:00.746Z,20.31
2018-07-23T16:22:30.318Z,20.48
2018-07-23T16:25:03.306Z,20.64
2018-07-23T16:27:32.826Z,20.80
2018-07-23T16:30:02.352Z,20.88
2018-07-23T16:32:32.429Z,20.82
2018-07-23T16:35:02.598Z,20.86
2018-07-23T16:37:32.257Z,20.88
2018-07-23T16:40:02.147Z,20.85
2018-07-23T16:42:31.722Z,20.92
2018-07-23T16:45:01.693Z,21.01
2018-07-23T16:47:32.283Z,21.12
2018-07-23T16:50:06.729Z,21.10
2018-07-23T16:52:38.787Z,21.13
2018-07-23T16:55:09.561Z,21.18
2018-07-23T16:57:40.530Z,21.13
2018-07-23T17:37:49.776Z,20.19
2018-07-23T17:40:19.543Z,19.93
2018-07-23T17:42:49.510Z,19.96
2018-07-23T17:45:19.910Z,20.09
2018-07-23T17:47:49.407Z,20.15
2018-07-23T17:50:19.040Z,20.13
2018-07-23T17:52:54.320Z,20.13
2018-07-23T18:12:45.386Z,20.03
2018-07-23T18:15:15.187Z,19.96
2018-07-23T18:17:44.760Z,19.93
2018-07-23T18:37:36.486Z,19.38
2018-07-23T18:57:27.568Z,19.32
2018-07-23T18:59:57.714Z,19.35
2018-07-23T19:02:31.891Z,19.27
2018-07-23T19:05:02.163Z,19.23
2018-07-23T19:07:32.549Z,19.13
2018-07-23T19:10:04.075Z,19.14
2018-07-23T19:12:33.923Z,19.10
2018-07-23T19:32:25.550Z,18.95
2018-07-23T19:34:55.050Z,18.95
2018-07-23T19:37:24.654Z,18.98
2018-07-23T19:39:54.309Z,19.01
2018-07-23T19:42:23.740Z,19.08
2018-07-23T19:44:53.479Z,19.04
2018-07-23T19:47:23.602Z,19.00
2018-07-23T19:49:52.980Z,18.94
2018-07-23T20:09:45.438Z,18.63
2018-07-23T20:12:14.972Z,18.58
2018-07-23T20:14:44.531Z,18.69
2018-07-23T20:17:14.159Z,18.71
2018-07-23T20:19:43.569Z,18.75
2018-07-23T20:22:13.002Z,18.80
2018-07-23T20:24:42.528Z,18.82
2018-07-23T20:27:12.040Z,18.76
2018-07-23T20:29:41.588Z,18.68
2018-07-23T20:32:12.801Z,18.62
2018-07-23T20:34:43.248Z,18.62
2018-07-23T20:37:12.620Z,18.69
2018-07-23T20:39:42.390Z,18.66
2018-07-23T20:42:15.558Z,18.19
2018-07-23T20:44:45.795Z,18.60
2018-07-23T20:47:16.593Z,18.62
2018-07-23T20:49:46.010Z,18.56
2018-07-23T20:52:17.962Z,18.57
2018-07-23T20:54:47.683Z,18.50
2018-07-23T20:57:17.028Z,18.47
2018-07-23T20:59:47.118Z,18.42
2018-07-23T21:02:16.429Z,18.33
2018-07-23T21:04:45.832Z,18.33
2018-07-23T21:07:15.556Z,18.32
2018-07-23T21:09:45.669Z,18.34
2018-07-23T21:12:16.135Z,18.36
2018-07-23T21:14:46.874Z,18.37
2018-07-23T21:17:17.621Z,18.34
2018-07-23T21:19:47.376Z,18.35
2018-07-23T21:22:16.820Z,18.34
2018-07-23T21:24:48.015Z,18.34
2018-07-23T21:27:26.842Z,18.33
2018-07-23T21:30:01.074Z,18.37
2018-07-23T21:32:30.977Z,18.31
2018-07-23T21:35:00.339Z,18.35
2018-07-23T21:37:30.102Z,18.26
2018-07-23T21:40:01.267Z,18.18
2018-07-23T21:42:31.127Z,18.22
2018-07-23T21:45:00.730Z,18.17
2018-07-23T21:47:30.266Z,18.15
2018-07-23T21:50:01.011Z,18.18
2018-07-23T21:52:30.363Z,18.17
2018-07-23T21:55:00.866Z,18.13
2018-07-23T21:57:30.559Z,18.12
2018-07-23T22:00:00.375Z,18.09
2018-07-23T22:02:30.130Z,18.11
2018-07-23T22:05:00.942Z,17.54
2018-07-23T22:07:31.708Z,18.07
2018-07-23T22:10:02.321Z,18.00
2018-07-23T22:12:31.621Z,17.99
2018-07-23T22:15:02.195Z,17.97
2018-07-23T22:17:32.159Z,17.90
2018-07-23T22:20:01.670Z,17.90
2018-07-23T22:22:31.802Z,17.85
2018-07-23T22:25:02.886Z,17.80
2018-07-23T22:27:32.823Z,17.80
2018-07-23T22:30:02.616Z,17.78
2018-07-23T22:32:32.967Z,17.76
2018-07-23T22:35:02.356Z,17.75
2018-07-23T22:37:33.068Z,17.78
2018-07-23T22:40:02.868Z,17.75
2018-07-23T22:42:35.334Z,17.72
2018-07-23T22:45:05.467Z,17.74
2018-07-23T22:47:35.271Z,17.80
2018-07-23T22:50:05.742Z,17.75
2018-07-23T22:52:35.140Z,17.76
2018-07-23T22:55:04.862Z,17.87
2018-07-23T22:57:34.911Z,17.89
2018-07-23T23:00:05.092Z,17.76
2018-07-23T23:02:34.632Z,17.72
2018-07-23T23:05:04.301Z,17.67
2018-07-23T23:07:33.901Z,17.57
2018-07-23T23:10:03.322Z,17.51
2018-07-23T23:12:32.885Z,17.43
2018-07-23T23:15:02.274Z,17.46
2018-07-23T23:17:33.089Z,17.38
2018-07-23T23:20:03.022Z,17.34
2018-07-23T23:22:34.384Z,17.31
2018-07-23T23:25:04.224Z,17.21
2018-07-23T23:27:33.718Z,17.39
2018-07-23T23:30:04.422Z,17.42
2018-07-23T23:32:35.030Z,17.50
2018-07-23T23:35:04.370Z,17.54
2018-07-23T23:37:34.918Z,17.56
2018-07-23T23:40:04.772Z,17.54
2018-07-23T23:42:35.246Z,17.49
2018-07-23T23:45:05.132Z,17.48
2018-07-23T23:47:36.547Z,17.41
2018-07-23T23:50:07.316Z,17.40
2018-07-23T23:52:37.438Z,17.43
2018-07-23T23:55:06.883Z,17.44
2018-07-23T23:57:37.038Z,17.49
